Terminal Aerodrome Forecast
Issued by NWS Charleston, WV

Current Version | Previous Version | Text Only | Print | Product List | Glossary Off
Versions: 1 2 3 4 5 6 7 8 9 10 11 12 13 14 15 16 17 18 19 20 21 22

000
FTUS41 KRLX 262355
TAFPKB
TAF
KPKB 262355Z 2700/2724 00000KT 4SM SHRA BR BKN030 OVC070
     FM270100 00000KT 3SM SHRA BR VCTS BKN025CB OVC050
     FM270700 05004KT 2SM +SHRA BR VCTS OVC020CB
     FM271000 09007KT 2SM SHRA BR OVC020
     FM271500 18010G17KT 5SM SHRA BR BKN025
     FM272000 23011G18KT P6SM BKN025=

USA.gov is the U.S. government's official web portal to all federal, state and local government web resources and services.